Time;durP1;ratioP1;P1;durP2;ratioP2;P2;SDS_P1;SDS_P2;PMS_P1;PMS_P2;Temp;Humidity;BMP_temperature;BMP_pressure;BME280_temperature;BME280_humidity;BME280_pressure;Samples;Min_cycle;Max_cycle;Signal;HPM_P1;HPM_P2
2023/06/05 00:01:18;;;;;;;12.43;6.13;;;;;;;13.51;100.00;92683.34;5052650;28;20083;-76
2023/06/05 00:03:44;;;;;;;10.52;5.45;;;;;;;13.52;100.00;92684.09;5055488;28;20025;-76
2023/06/05 00:06:10;;;;;;;9.57;5.25;;;;;;;13.53;100.00;92673.28;5058039;28;20567;-77
2023/06/05 00:08:36;;;;;;;9.85;4.95;;;;;;;13.51;100.00;92680.69;5059330;28;20037;-76
2023/06/05 00:11:01;;;;;;;9.98;4.47;;;;;;;13.48;100.00;92670.75;5079217;28;20048;-77
2023/06/05 00:13:27;;;;;;;8.63;4.63;;;;;;;13.46;100.00;92678.16;5058157;28;20505;-76
2023/06/05 00:15:53;;;;;;;7.82;4.22;;;;;;;13.44;100.00;92672.47;5083605;28;20043;-76
2023/06/05 00:18:19;;;;;;;7.82;4.15;;;;;;;13.42;100.00;92661.47;5075421;28;20040;-77
2023/06/05 00:20:44;;;;;;;6.35;3.38;;;;;;;13.38;100.00;92663.13;5080391;28;20387;-76
2023/06/05 00:23:13;;;;;;;7.10;3.20;;;;;;;13.34;100.00;92662.16;5075520;28;20089;-76
2023/06/05 00:25:39;;;;;;;6.75;3.75;;;;;;;13.32;100.00;92669.56;5057415;28;20129;-76
2023/06/05 00:28:04;;;;;;;11.65;3.83;;;;;;;13.29;100.00;92665.69;5078128;28;20541;-76
2023/06/05 00:30:30;;;;;;;8.80;3.50;;;;;;;13.28;100.00;92663.34;5060121;28;20143;-76
2023/06/05 00:32:57;;;;;;;6.00;2.88;;;;;;;13.28;100.00;92652.84;5085518;28;20478;-76
2023/06/05 00:35:22;;;;;;;5.68;3.00;;;;;;;13.28;100.00;92658.09;5071377;28;20047;-76
2023/06/05 00:37:48;;;;;;;6.72;3.10;;;;;;;13.25;100.00;92654.19;5060878;28;20110;-76
2023/06/05 00:40:14;;;;;;;9.40;3.42;;;;;;;13.24;100.00;92652.63;5080023;28;20059;-76
2023/06/05 00:42:40;;;;;;;6.75;3.40;;;;;;;13.24;100.00;92657.91;5075519;28;20051;-76
2023/06/05 00:50:32;;;;;;;5.85;3.42;;;;;;;13.18;100.00;92638.06;5164350;23;20043;-89
2023/06/05 00:52:59;;;;;;;5.68;3.10;;;;;;;13.15;100.00;92643.13;4945494;29;20047;-89
2023/06/05 00:55:26;;;;;;;8.23;3.25;;;;;;;13.04;100.00;92627.59;4912267;29;20343;-90
2023/06/05 00:57:54;;;;;;;7.90;3.20;;;;;;;13.11;100.00;92641.09;4911078;29;20395;-90
2023/06/05 01:00:21;;;;;;;10.35;2.92;;;;;;;13.19;100.00;92659.84;4922032;29;20043;-89
2023/06/05 01:02:47;;;;;;;7.20;3.20;;;;;;;13.20;100.00;92653.53;4936994;29;20051;-90
2023/06/05 01:05:14;;;;;;;6.90;2.70;;;;;;;13.17;100.00;92662.00;4951752;29;20035;-89
2023/06/05 01:07:40;;;;;;;5.22;2.70;;;;;;;13.05;100.00;92644.91;4967071;28;20078;-88
2023/06/05 01:10:10;;;;;;;6.95;3.00;;;;;;;13.09;100.00;92660.88;4960868;28;20038;-89
2023/06/05 01:12:59;;;;;;;5.65;3.00;;;;;;;12.95;100.00;92639.09;4955912;28;20031;-90
2023/06/05 01:15:29;;;;;;;5.05;2.67;;;;;;;12.98;100.00;92644.53;4957844;28;20038;-88
2023/06/05 01:17:59;;;;;;;7.03;3.25;;;;;;;13.03;100.00;92652.31;4954967;28;20035;-88
2023/06/05 01:20:42;;;;;;;6.07;2.60;;;;;;;12.87;100.00;92640.56;4920564;29;20487;-90
2023/06/05 01:23:08;;;;;;;6.28;2.92;;;;;;;12.87;100.00;92641.34;4946367;29;20046;-90
2023/06/05 01:25:36;;;;;;;7.35;2.70;;;;;;;12.97;100.00;92657.97;4947587;29;20237;-89
2023/06/05 01:28:17;;;;;;;8.23;3.13;;;;;;;12.95;100.00;92644.34;4940179;29;20043;-91
2023/06/05 01:31:01;;;;;;;5.18;2.58;;;;;;;12.93;100.00;92647.28;4932530;29;20039;-90
2023/06/05 01:33:41;;;;;;;5.97;2.95;;;;;;;12.93;100.00;92649.13;4941558;29;20035;-89
2023/06/05 01:36:09;;;;;;;7.00;3.55;;;;;;;12.78;100.00;92621.34;4939271;29;20035;-89
2023/06/05 01:38:36;;;;;;;6.45;3.15;;;;;;;12.87;100.00;92641.34;4951479;29;20031;-90
2023/06/05 01:41:04;;;;;;;9.52;3.35;;;;;;;12.89;100.00;92638.44;4953857;28;20031;-90
2023/06/05 01:43:31;;;;;;;5.63;3.03;;;;;;;12.74;100.00;92617.75;4935715;29;20618;-90
2023/06/05 01:45:58;;;;;;;6.65;3.08;;;;;;;12.70;100.00;92613.09;4952644;29;20055;-89
2023/06/05 01:48:27;;;;;;;7.57;2.95;;;;;;;12.74;100.00;92621.13;4950450;28;20046;-90
2023/06/05 01:50:58;;;;;;;7.43;3.53;;;;;;;12.64;100.00;92598.50;4934033;29;20388;-90
2023/06/05 01:53:24;;;;;;;10.35;3.13;;;;;;;12.77;100.00;92607.44;4951712;29;20035;-89
2023/06/05 01:55:56;;;;;;;6.15;2.72;;;;;;;12.68;100.00;92596.84;4952767;28;20569;-89
2023/06/05 01:58:26;;;;;;;5.65;2.90;;;;;;;12.84;100.00;92628.03;4951062;29;20035;-90
2023/06/05 02:00:57;;;;;;;10.48;3.17;;;;;;;12.68;100.00;92604.72;4949348;29;20074;-89
2023/06/05 02:03:23;;;;;;;7.73;3.20;;;;;;;12.61;100.00;92591.22;4946373;29;20411;-90
2023/06/05 02:05:51;;;;;;;7.03;3.70;;;;;;;12.55;100.00;92581.91;4918719;29;20374;-89
2023/06/05 02:08:19;;;;;;;6.60;3.47;;;;;;;12.71;100.00;92604.13;4932716;29;20036;-89
2023/06/05 02:10:46;;;;;;;12.10;4.15;;;;;;;12.74;100.00;92605.38;4951593;29;20039;-90
2023/06/05 02:13:12;;;;;;;9.32;3.72;;;;;;;12.57;100.00;92582.38;4933955;29;20058;-89
2023/06/05 02:15:38;;;;;;;7.35;3.33;;;;;;;12.66;100.00;92598.22;4927687;29;20036;-90
2023/06/05 02:18:04;;;;;;;8.85;3.55;;;;;;;12.50;100.00;92579.38;4956990;28;20431;-89
2023/06/05 02:20:32;;;;;;;7.95;3.72;;;;;;;12.53;100.00;92578.78;4920420;29;20476;-89
2023/06/05 02:22:58;;;;;;;10.30;3.17;;;;;;;12.62;100.00;92592.78;4935356;29;20031;-89
2023/06/05 02:25:26;;;;;;;9.35;3.30;;;;;;;12.60;100.00;92586.25;4940539;29;20042;-89
2023/06/05 02:27:52;;;;;;;6.20;3.08;;;;;;;12.79;100.00;92586.91;4925912;29;20047;-89
2023/06/05 02:30:18;;;;;;;5.97;3.00;;;;;;;12.71;100.00;92591.00;4951198;29;20046;-89
2023/06/05 02:32:44;;;;;;;6.95;3.10;;;;;;;12.57;100.00;92569.25;4943515;29;20040;-89
2023/06/05 02:35:13;;;;;;;7.93;2.80;;;;;;;12.68;100.00;92588.19;4939590;29;20476;-89
2023/06/05 02:37:44;;;;;;;6.05;2.75;;;;;;;12.57;100.00;92577.13;4935524;29;20035;-90
2023/06/05 02:40:12;;;;;;;6.80;2.85;;;;;;;12.53;100.00;92578.78;4950053;29;20415;-89
2023/06/05 02:42:38;;;;;;;5.80;3.03;;;;;;;12.39;100.00;92554.41;4927451;29;20039;-90
2023/06/05 02:45:05;;;;;;;5.47;2.92;;;;;;;12.38;100.00;92552.84;4908056;29;20039;-89
2023/06/05 02:47:31;;;;;;;5.55;2.80;;;;;;;12.45;100.00;92568.97;4955429;28;20043;-89
2023/06/05 02:49:59;;;;;;;9.73;2.90;;;;;;;12.50;100.00;92571.50;4930658;29;20404;-89
2023/06/05 02:52:25;;;;;;;5.95;3.10;;;;;;;12.32;100.00;92538.31;4926003;29;20046;-90
2023/06/05 02:54:51;;;;;;;7.18;2.90;;;;;;;12.53;100.00;92576.16;4905837;29;20155;-89
2023/06/05 02:57:17;;;;;;;7.10;2.90;;;;;;;12.40;100.00;92555.97;4944362;28;20336;-90
2023/06/05 02:59:44;;;;;;;6.35;2.72;;;;;;;12.39;100.00;92551.78;4947827;29;20031;-90
2023/06/05 03:02:13;;;;;;;10.23;3.20;;;;;;;12.39;100.00;92551.78;4940211;29;20040;-90
2023/06/05 03:04:42;;;;;;;7.82;2.90;;;;;;;12.48;100.00;92566.53;4948500;29;20404;-90
2023/06/05 03:07:09;;;;;;;8.35;3.20;;;;;;;12.32;100.00;92543.56;4924306;29;20448;-90
2023/06/05 03:09:36;;;;;;;5.82;2.92;;;;;;;12.27;100.00;92529.47;4928948;29;20515;-89
2023/06/05 03:12:03;;;;;;;8.23;3.28;;;;;;;12.35;100.00;92542.94;4948022;29;20142;-89
2023/06/05 03:14:30;;;;;;;5.80;2.97;;;;;;;12.38;100.00;92547.59;4925043;29;20377;-91
2023/06/05 03:16:58;;;;;;;8.07;2.72;;;;;;;12.36;100.00;92540.03;4942131;29;20515;-90
2023/06/05 03:19:26;;;;;;;6.47;2.95;;;;;;;12.43;100.00;92561.41;4950034;29;20518;-90
2023/06/05 03:21:53;;;;;;;6.43;2.90;;;;;;;12.42;100.00;92557.22;4948107;28;20039;-89
2023/06/05 03:24:19;;;;;;;7.85;3.00;;;;;;;12.35;100.00;92537.69;4936020;29;20043;-88
2023/06/05 03:26:51;;;;;;;6.70;2.88;;;;;;;12.29;100.00;92532.56;4936329;29;20224;-90
2023/06/05 03:29:17;;;;;;;6.43;2.78;;;;;;;12.29;100.00;92529.94;4916181;29;20140;-90
2023/06/05 03:31:43;;;;;;;5.35;3.13;;;;;;;12.37;100.00;92538.19;4929722;29;20098;-89
2023/06/05 03:34:10;;;;;;;5.10;2.78;;;;;;;12.32;100.00;92538.31;4950350;28;20039;-89
2023/06/05 03:36:38;;;;;;;6.40;2.75;;;;;;;12.43;100.00;92550.13;4941315;29;20507;-90
2023/06/05 03:39:08;;;;;;;7.20;2.90;;;;;;;12.33;100.00;92534.59;4947480;29;20061;-89
2023/06/05 03:41:36;;;;;;;7.55;3.20;;;;;;;12.29;100.00;92537.03;4944102;28;20046;-90
2023/06/05 03:44:03;;;;;;;6.53;2.83;;;;;;;12.32;100.00;92539.06;4955252;28;20094;-90
2023/06/05 03:46:31;;;;;;;5.85;3.05;;;;;;;12.41;100.00;92549.66;4945087;29;20132;-89
2023/06/05 03:49:05;;;;;;;5.97;2.67;;;;;;;12.39;100.00;92549.16;4951503;29;20040;-90
2023/06/05 03:51:31;;;;;;;9.93;2.90;;;;;;;12.41;100.00;92552.28;4949362;29;20043;-89
2023/06/05 03:53:58;;;;;;;10.35;3.20;;;;;;;12.40;100.00;92548.09;4933751;29;20050;-90
2023/06/05 03:56:31;;;;;;;8.77;2.83;;;;;;;12.41;100.00;92549.66;4945160;28;20369;-89
2023/06/05 03:59:09;;;;;;;4.53;2.30;;;;;;;12.17;100.00;92507.91;4950047;29;20039;-90
2023/06/05 04:01:38;;;;;;;6.55;3.33;;;;;;;12.26;100.00;92525.25;4947515;29;20035;-89
2023/06/05 04:04:08;;;;;;;7.95;2.92;;;;;;;12.37;100.00;92546.06;4954390;29;20043;-89
2023/06/05 04:06:34;;;;;;;6.95;3.13;;;;;;;12.18;100.00;92514.69;4946948;29;20063;-89
2023/06/05 04:09:01;;;;;;;6.13;3.38;;;;;;;12.24;100.00;92524.78;4954976;29;20031;-89
2023/06/05 04:11:26;;;;;;;8.20;3.40;;;;;;;12.26;100.00;92527.88;4952430;29;20047;-89
2023/06/05 04:13:55;;;;;;;11.85;3.67;;;;;;;12.22;100.00;92524.28;4936042;29;20696;-89
2023/06/05 04:16:21;;;;;;;7.65;3.90;;;;;;;12.31;100.00;92548.00;4953300;29;20042;-89
2023/06/05 04:18:47;;;;;;;12.23;3.75;;;;;;;12.25;100.00;92526.34;4946438;29;20395;-89
2023/06/05 04:21:12;;;;;;;6.15;3.10;;;;;;;12.34;100.00;92536.13;4954217;29;20117;-89
2023/06/05 04:23:38;;;;;;;9.50;3.05;;;;;;;12.21;100.00;92517.50;4949216;29;20074;-89
2023/06/05 04:26:04;;;;;;;7.03;3.20;;;;;;;12.28;100.00;92527.59;4948031;29;20118;-89
2023/06/05 04:28:31;;;;;;;7.75;3.42;;;;;;;12.31;100.00;92513.09;4953142;29;20047;-90
2023/06/05 04:30:57;;;;;;;6.03;3.10;;;;;;;12.39;100.00;92528.16;4953982;29;20694;-89
2023/06/05 04:33:23;;;;;;;7.30;3.10;;;;;;;12.43;100.00;92523.88;4930569;29;20043;-89
2023/06/05 04:35:49;;;;;;;6.03;2.90;;;;;;;12.41;100.00;92526.78;4936713;29;20043;-90
2023/06/05 04:38:15;;;;;;;6.75;3.15;;;;;;;12.52;100.00;92537.88;4946451;29;20538;-90
2023/06/05 04:40:43;;;;;;;6.68;2.85;;;;;;;12.54;100.00;92532.28;4944427;29;20047;-88
2023/06/05 04:43:09;;;;;;;5.35;2.80;;;;;;;12.43;100.00;92514.16;4931429;29;20173;-89
2023/06/05 04:45:35;;;;;;;10.25;3.20;;;;;;;12.54;100.00;92530.47;4951548;29;20118;-86
2023/06/05 04:48:01;;;;;;;5.47;3.20;;;;;;;12.54;100.00;92525.22;4929957;29;20104;-89
2023/06/05 04:50:28;;;;;;;7.95;2.78;;;;;;;12.62;100.00;92527.13;4919588;29;20519;-90
2023/06/05 04:53:03;;;;;;;9.13;2.88;;;;;;;12.65;100.00;92526.53;4950589;29;20121;-90
2023/06/05 04:55:30;;;;;;;8.43;2.83;;;;;;;12.67;100.00;92524.38;4922689;29;20524;-88
2023/06/05 04:58:00;;;;;;;9.27;3.40;;;;;;;12.79;100.00;92531.75;4964586;28;20138;-88
2023/06/05 05:00:27;;;;;;;7.53;3.08;;;;;;;12.83;100.00;92526.66;4911291;29;20044;-89
2023/06/05 05:02:53;;;;;;;8.30;2.90;;;;;;;12.84;100.00;92525.59;4930133;29;20032;-88
2023/06/05 05:05:20;;;;;;;7.95;3.08;;;;;;;12.90;100.00;92529.63;4928893;29;20050;-88
2023/06/05 05:07:47;;;;;;;6.38;3.08;;;;;;;12.87;100.00;92511.84;4915089;29;20043;-89
2023/06/05 05:10:14;;;;;;;6.05;3.35;;;;;;;12.88;100.00;92510.78;4917061;29;20563;-88
2023/06/05 05:12:40;;;;;;;10.93;3.38;;;;;;;13.09;100.00;92524.22;4945464;29;20612;-88
2023/06/05 05:15:06;;;;;;;8.63;3.30;;;;;;;13.14;100.00;92526.69;4935642;29;20136;-89
2023/06/05 05:17:32;;;;;;;10.65;4.68;;;;;;;13.22;100.00;92525.22;4936557;29;20049;-89
2023/06/05 05:20:01;;;;;;;6.75;3.05;;;;;;;13.33;100.00;92524.69;4946963;28;20043;-89
2023/06/05 05:22:28;;;;;;;8.57;3.03;;;;;;;13.39;100.00;92530.56;4947984;29;20138;-90
2023/06/05 05:24:55;;;;;;;7.43;3.08;;;;;;;13.47;100.00;92523.81;4933862;29;20046;-89
2023/06/05 05:27:20;;;;;;;7.65;2.95;;;;;;;13.57;100.00;92522.78;4942681;29;20043;-90
2023/06/05 05:29:46;;;;;;;7.25;3.08;;;;;;;13.77;100.00;92530.13;4935517;29;20047;-90
2023/06/05 05:32:12;;;;;;;7.47;3.03;;;;;;;13.94;100.00;92540.72;4945589;29;20682;-89
2023/06/05 05:34:37;;;;;;;5.05;2.75;;;;;;;13.93;100.00;92523.34;4935889;29;20038;-89
2023/06/05 05:37:03;;;;;;;4.80;2.50;;;;;;;14.10;100.00;92529.78;4929681;29;20090;-89
2023/06/05 05:39:30;;;;;;;6.97;2.78;;;;;;;14.25;100.00;92531.97;4946758;29;20114;-89
2023/06/05 05:41:56;;;;;;;5.45;2.65;;;;;;;14.34;100.00;92531.97;4945442;29;20028;-90
2023/06/05 05:44:21;;;;;;;6.25;2.65;;;;;;;14.40;100.00;92530.75;4915803;29;20083;-88
2023/06/05 05:46:47;;;;;;;7.78;2.90;;;;;;;14.51;100.00;92539.13;4947971;28;20044;-89
2023/06/05 05:49:13;;;;;;;6.22;2.65;;;;;;;14.64;100.00;92540.09;4926273;29;20087;-89
2023/06/05 05:51:40;;;;;;;18.50;4.18;;;;;;;14.76;100.00;92538.38;4942998;29;20031;-90
2023/06/05 05:54:05;;;;;;;8.05;2.50;;;;;;;14.83;100.00;92523.97;4924841;29;20044;-89
2023/06/05 05:56:31;;;;;;;8.68;2.70;;;;;;;14.93;100.00;92523.69;4951795;29;20077;-90
2023/06/05 05:58:56;;;;;;;7.93;2.90;;;;;;;14.97;100.00;92533.28;4930525;29;20040;-89
2023/06/05 06:01:22;;;;;;;21.90;6.40;;;;;;;14.91;100.00;92515.31;4920944;29;20031;-89
2023/06/05 06:03:48;;;;;;;17.45;7.43;;;;;;;15.04;100.00;92534.66;4904830;29;20039;-89
2023/06/05 06:06:13;;;;;;;96.75;10.00;;;;;;;14.73;100.00;92520.56;4929242;29;20035;-89
2023/06/05 06:08:39;;;;;;;13.95;7.05;;;;;;;14.86;100.00;92518.88;4951946;29;20043;-89
2023/06/05 06:11:06;;;;;;;28.80;9.00;;;;;;;15.07;100.00;92521.63;4949312;29;20060;-89
2023/06/05 06:13:33;;;;;;;66.13;10.65;;;;;;;14.90;100.00;92508.47;4943496;29;20051;-89
2023/06/05 06:15:59;;;;;;;18.75;8.68;;;;;;;15.50;100.00;92526.03;4945410;29;20058;-90
2023/06/05 06:18:25;;;;;;;19.52;8.90;;;;;;;16.20;100.00;92537.09;4930132;29;20047;-89
2023/06/05 06:20:51;;;;;;;10.88;5.95;;;;;;;17.21;100.00;92530.94;4951271;28;20031;-89
2023/06/05 06:23:18;;;;;;;16.75;5.43;;;;;;;17.27;100.00;92523.59;4929302;29;20071;-89
2023/06/05 06:25:43;;;;;;;16.17;7.53;;;;;;;16.81;100.00;92514.81;4949719;29;20053;-89
2023/06/05 06:28:09;;;;;;;20.52;8.75;;;;;;;16.71;100.00;92531.81;4947273;28;20035;-88
2023/06/05 06:30:57;;;;;;;;;;;;;;;;;;;;;
2023/06/05 06:33:45;;;;;;;16.20;8.00;;;;;;;15.73;100.00;92528.47;4960845;29;20127;-90
2023/06/05 06:36:12;;;;;;;13.60;8.07;;;;;;;15.31;100.00;92529.03;4942781;28;20031;-88
2023/06/05 06:38:37;;;;;;;16.58;8.07;;;;;;;14.91;100.00;92531.13;4926960;29;20043;-89
2023/06/05 06:41:09;;;;;;;24.65;10.25;;;;;;;14.68;100.00;92549.72;4945224;29;20098;-90
2023/06/05 06:43:35;;;;;;;17.60;8.60;;;;;;;14.51;100.00;92545.16;4956398;29;20130;-91
2023/06/05 06:46:20;;;;;;;17.42;9.32;;;;;;;14.30;100.00;92539.72;4957657;29;20035;-90
2023/06/05 06:48:53;;;;;;;19.10;9.03;;;;;;;14.53;100.00;92564.06;4955503;28;20043;-92
2023/06/05 06:51:18;;;;;;;18.55;8.30;;;;;;;14.54;100.00;92554.31;4940537;29;20119;-90
2023/06/05 06:53:44;;;;;;;104.35;12.85;;;;;;;14.47;100.00;92546.09;4936488;29;20079;-91
2023/06/05 06:56:10;;;;;;;16.73;8.85;;;;;;;14.52;100.00;92552.00;4947437;28;20019;-89
2023/06/05 06:58:42;;;;;;;17.15;8.73;;;;;;;14.69;100.00;92556.53;4948178;28;20038;-89
2023/06/05 07:01:08;;;;;;;18.52;8.82;;;;;;;14.76;100.00;92550.78;4975053;28;20074;-90
2023/06/05 07:03:35;;;;;;;21.50;10.20;;;;;;;14.63;100.00;92570.16;4972173;28;20031;-89
2023/06/05 07:06:01;;;;;;;18.20;10.10;;;;;;;14.37;100.00;92560.34;4957279;28;20118;-91
2023/06/05 07:08:27;;;;;;;16.17;8.90;;;;;;;14.65;100.00;92555.59;4928960;29;20044;-89
2023/06/05 07:10:55;;;;;;;16.40;9.05;;;;;;;14.76;100.00;92563.97;4928460;29;20399;-91
2023/06/05 07:13:22;;;;;;;17.25;9.05;;;;;;;14.92;100.00;92574.81;4928243;29;20051;-92
2023/06/05 07:15:50;;;;;;;15.77;8.35;;;;;;;15.41;100.00;92559.56;4951488;29;20085;-91
2023/06/05 07:18:19;;;;;;;14.00;8.00;;;;;;;15.75;100.00;92552.69;4937429;29;20023;-90
2023/06/05 07:20:45;;;;;;;13.55;7.15;;;;;;;16.12;100.00;92551.13;4935186;29;20047;-91
2023/06/05 07:23:10;;;;;;;15.02;7.05;;;;;;;16.05;100.00;92550.84;4930897;29;20389;-91
2023/06/05 07:25:37;;;;;;;12.48;7.15;;;;;;;16.01;100.00;92550.72;4953063;28;20069;-90
2023/06/05 07:28:08;;;;;;;13.18;6.43;;;;;;;16.14;100.00;92538.38;4936066;29;20089;-91
2023/06/05 07:30:33;;;;;;;14.05;6.78;;;;;;;16.28;100.00;92561.13;4952622;29;20049;-91
2023/06/05 07:32:59;;;;;;;12.18;5.68;;;;;;;16.31;100.00;92571.09;4950152;29;20027;-90
2023/06/05 07:35:25;;;;;;;12.93;5.25;;;;;;;16.64;100.00;92565.91;4937715;29;20046;-91
2023/06/05 07:37:53;;;;;;;13.57;5.30;;;;;;;16.64;100.00;92560.63;4948741;29;20050;-90
2023/06/05 07:40:19;;;;;;;9.18;4.07;;;;;;;16.56;100.00;92564.09;4953419;29;20039;-91
2023/06/05 07:42:45;;;;;;;11.13;5.03;;;;;;;16.13;100.00;92551.91;4956352;28;20043;-91
2023/06/05 07:45:10;;;;;;;10.95;4.80;;;;;;;16.29;100.00;92550.25;4936724;29;20040;-91
2023/06/05 07:47:38;;;;;;;8.73;3.90;;;;;;;16.81;100.00;92555.22;4953811;28;20499;-91
2023/06/05 07:50:08;;;;;;;9.70;3.60;;;;;;;16.84;100.00;92533.47;4923433;29;20046;-91
2023/06/05 07:52:33;;;;;;;9.18;4.18;;;;;;;17.22;100.00;92558.94;4955448;28;20047;-92
2023/06/05 07:54:59;;;;;;;8.13;3.53;;;;;;;17.33;100.00;92566.47;4936379;29;20027;-91
2023/06/05 07:57:25;;;;;;;8.75;3.53;;;;;;;17.01;100.00;92531.75;4948198;29;20031;-91
2023/06/05 07:59:52;;;;;;;8.07;4.55;;;;;;;17.14;100.00;92565.09;4953751;29;20455;-91
2023/06/05 08:02:18;;;;;;;7.38;4.05;;;;;;;16.99;100.00;92544.53;4927551;29;20028;-90
2023/06/05 08:04:44;;;;;;;7.22;4.05;;;;;;;16.92;100.00;92554.84;4955088;29;20066;-91
2023/06/05 08:07:10;;;;;;;7.68;3.90;;;;;;;16.74;100.00;92544.38;4960227;29;20030;-91
2023/06/05 08:09:36;;;;;;;8.80;4.18;;;;;;;16.72;100.00;92541.28;4970902;28;20047;-91
2023/06/05 08:12:03;;;;;;;9.68;4.20;;;;;;;17.10;100.00;92523.75;4935606;29;20047;-91
2023/06/05 08:14:29;;;;;;;8.18;4.25;;;;;;;17.57;100.00;92563.91;4952405;29;20059;-91
2023/06/05 08:16:55;;;;;;;11.60;4.47;;;;;;;17.23;100.00;92544.63;4954251;29;20078;-91
2023/06/05 08:19:24;;;;;;;7.05;3.50;;;;;;;17.09;100.00;92553.94;4946267;29;20058;-91
2023/06/05 08:21:53;;;;;;;12.93;4.38;;;;;;;17.02;100.00;92565.81;4948791;29;20027;-92
2023/06/05 08:24:21;;;;;;;8.38;4.28;;;;;;;16.72;100.00;92546.56;4935129;29;20043;-92
2023/06/05 08:26:49;;;;;;;7.38;4.22;;;;;;;16.66;100.00;92555.78;4950591;29;20032;-91
2023/06/05 08:29:15;;;;;;;11.60;5.38;;;;;;;16.70;100.00;92548.75;4934593;29;20047;-90
2023/06/05 08:31:41;;;;;;;11.73;4.60;;;;;;;16.75;100.00;92564.44;4938266;29;20052;-91
2023/06/05 08:34:07;;;;;;;13.27;5.20;;;;;;;16.66;100.00;92539.91;4935546;29;20407;-90
2023/06/05 08:36:35;;;;;;;11.30;5.55;;;;;;;16.57;100.00;92523.34;4935949;29;20042;-93
2023/06/05 08:39:01;;;;;;;11.75;4.88;;;;;;;16.51;100.00;92543.16;4955383;29;20035;-91
2023/06/05 08:41:30;;;;;;;10.63;5.25;;;;;;;16.47;100.00;92566.03;4953846;28;20495;-90
2023/06/05 08:43:56;;;;;;;10.52;5.53;;;;;;;16.32;100.00;92562.06;4953700;29;20043;-92
2023/06/05 08:46:25;;;;;;;11.65;5.75;;;;;;;16.30;100.00;92541.25;4954985;29;20155;-91
2023/06/05 08:48:51;;;;;;;10.35;5.75;;;;;;;16.67;100.00;92570.56;4952951;29;21212;-91
2023/06/05 08:51:18;;;;;;;12.68;6.70;;;;;;;16.13;100.00;92536.06;4945926;29;20043;-91
2023/06/05 08:53:51;;;;;;;9.63;4.85;;;;;;;16.28;100.00;92559.28;4954001;29;20047;-90
2023/06/05 08:56:17;;;;;;;11.23;5.40;;;;;;;16.62;100.00;92558.31;4951377;29;20406;-90
2023/06/05 08:58:53;;;;;;;13.23;6.68;;;;;;;16.63;100.00;92549.25;4945486;29;20047;-92
2023/06/05 09:01:19;;;;;;;13.93;7.10;;;;;;;16.69;100.00;92557.78;4950175;29;20046;-91
2023/06/05 09:03:45;;;;;;;17.70;6.88;;;;;;;16.78;100.00;92566.44;4952906;28;20039;-92
2023/06/05 09:06:11;;;;;;;13.57;6.25;;;;;;;16.78;100.00;92555.84;4947514;29;20031;-91
2023/06/05 09:08:37;;;;;;;13.57;6.35;;;;;;;16.82;100.00;92564.72;4952293;28;20041;-89
2023/06/05 09:11:22;;;;;;;12.63;6.13;;;;;;;17.05;100.00;92565.16;4961542;29;20039;-90
2023/06/05 09:13:48;;;;;;;13.07;6.97;;;;;;;17.02;100.00;92565.03;4932969;29;20065;-89
2023/06/05 09:16:14;;;;;;;17.80;7.03;;;;;;;17.09;100.00;92562.66;4956542;28;20036;-91
2023/06/05 09:19:06;;;;;;;11.95;5.05;;;;;;;17.10;100.00;92568.72;4949833;29;20139;-90
2023/06/05 09:21:33;;;;;;;11.85;7.07;;;;;;;16.96;100.00;92542.53;4943685;29;20130;-92
2023/06/05 09:24:19;;;;;;;14.90;6.20;;;;;;;17.20;100.00;92569.09;4957154;28;20035;-92
2023/06/05 09:26:58;;;;;;;11.48;6.38;;;;;;;17.30;100.00;92575.06;4947170;29;20023;-92
2023/06/05 09:29:26;;;;;;;11.30;5.60;;;;;;;17.02;100.00;92555.25;4935111;29;20043;-91
2023/06/05 09:31:57;;;;;;;12.18;6.88;;;;;;;16.84;100.00;92567.81;4954473;28;20528;-93
2023/06/05 09:34:30;;;;;;;12.88;6.40;;;;;;;16.62;100.00;92560.94;4956985;28;20054;-91
2023/06/05 09:37:00;;;;;;;12.65;6.15;;;;;;;16.60;100.00;92551.78;4951326;29;20118;-91
2023/06/05 09:39:37;;;;;;;12.45;6.60;;;;;;;16.52;100.00;92526.97;4947484;28;20043;-93
2023/06/05 09:42:03;;;;;;;12.85;7.25;;;;;;;16.82;100.00;92556.03;4952361;28;20031;-91
2023/06/05 09:44:33;;;;;;;18.42;7.03;;;;;;;16.62;100.00;92562.81;4921173;29;20047;-90
2023/06/05 09:47:07;;;;;;;18.10;7.03;;;;;;;16.34;100.00;92526.28;4954214;29;20031;-92
2023/06/05 09:49:40;;;;;;;18.05;7.70;;;;;;;16.73;100.00;92561.34;4948694;29;20137;-91
2023/06/05 09:52:09;;;;;;;15.07;7.20;;;;;;;16.62;100.00;92558.31;4947927;28;20059;-92
2023/06/05 09:54:37;;;;;;;19.20;8.13;;;;;;;16.82;100.00;92559.44;4952126;29;20039;-90
2023/06/05 09:57:05;;;;;;;13.60;7.22;;;;;;;16.71;100.00;92537.09;4948477;29;20430;-91
2023/06/05 09:59:32;;;;;;;13.43;7.20;;;;;;;16.94;100.00;92548.16;4936707;29;20243;-92
2023/06/05 10:02:06;;;;;;;13.57;7.35;;;;;;;17.16;100.00;92551.56;4933617;29;20039;-91
2023/06/05 10:04:41;;;;;;;13.38;6.78;;;;;;;17.04;100.00;92531.09;4950761;29;20067;-91
2023/06/05 10:07:07;;;;;;;13.75;6.80;;;;;;;17.13;100.00;92534.44;4948738;29;20062;-91
2023/06/05 10:09:36;;;;;;;11.90;6.07;;;;;;;17.27;100.00;92553.47;4947050;29;20075;-92
2023/06/05 10:12:05;;;;;;;10.38;5.88;;;;;;;17.01;100.00;92535.16;4919880;29;20562;-92
2023/06/05 10:14:30;;;;;;;14.13;6.95;;;;;;;16.95;100.00;92539.09;4924369;29;20035;-90
2023/06/05 10:16:58;;;;;;;15.85;8.02;;;;;;;16.88;100.00;92546.03;4950314;29;20031;-91
2023/06/05 10:19:26;;;;;;;14.10;6.65;;;;;;;16.60;100.00;92538.56;4933400;29;20574;-92
2023/06/05 10:21:52;;;;;;;16.27;7.95;;;;;;;16.43;100.00;92552.66;4934497;29;20125;-90
2023/06/05 10:24:25;;;;;;;17.70;9.05;;;;;;;16.24;100.00;92553.09;4916029;29;20134;-91
2023/06/05 10:27:06;;;;;;;15.75;7.97;;;;;;;16.42;100.00;92559.81;4936026;29;20138;-90
2023/06/05 10:29:59;;;;;;;17.95;9.85;;;;;;;16.70;100.00;92572.53;4952628;29;20035;-92
2023/06/05 10:32:28;;;;;;;16.10;8.15;;;;;;;16.87;100.00;92563.00;4940216;29;20040;-93
2023/06/05 10:35:18;;;;;;;15.65;8.90;;;;;;;16.87;100.00;92566.41;4947787;29;20039;-89
2023/06/05 10:37:59;;;;;;;20.02;9.70;;;;;;;17.00;100.00;92569.84;4946616;29;20042;-92
2023/06/05 10:40:28;;;;;;;17.42;9.00;;;;;;;17.23;100.00;92565.78;4945569;29;20174;-91
2023/06/05 10:43:28;;;;;;;13.20;7.10;;;;;;;17.56;100.00;92562.38;4934732;29;20129;-90
2023/06/05 10:45:56;;;;;;;22.77;8.90;;;;;;;17.96;100.00;92548.56;4933428;29;20027;-91
2023/06/05 10:48:41;;;;;;;21.52;9.93;;;;;;;17.54;100.00;92559.28;4959475;28;20038;-92
2023/06/05 10:51:33;;;;;;;17.65;8.65;;;;;;;17.43;100.00;92563.44;4932605;28;20062;-91
2023/06/05 10:54:00;;;;;;;19.60;10.10;;;;;;;17.19;100.00;92559.59;4952486;29;20036;-91
2023/06/05 10:56:58;;;;;;;15.73;8.75;;;;;;;17.52;100.00;92556.19;4939390;29;20067;-91
2023/06/05 10:59:29;;;;;;;22.83;10.95;;;;;;;17.30;100.00;92545.97;4955104;29;20376;-92
2023/06/05 11:02:05;;;;;;;18.90;9.45;;;;;;;17.43;100.00;92553.63;4955312;28;20140;-91
2023/06/05 11:04:43;;;;;;;15.70;8.40;;;;;;;17.39;100.00;92557.25;4952114;29;20073;-93
2023/06/05 11:07:25;;;;;;;16.00;9.25;;;;;;;17.32;100.00;92543.78;4949365;28;20046;-91
2023/06/05 11:10:15;;;;;;;18.52;9.75;;;;;;;17.45;100.00;92551.44;4959081;28;20045;-92
2023/06/05 11:12:41;;;;;;;21.65;11.55;;;;;;;17.01;100.00;92558.19;4937889;29;20038;-91
2023/06/05 11:15:11;;;;;;;25.25;14.10;;;;;;;16.70;100.00;92542.69;4936855;29;20031;-91
2023/06/05 11:17:46;;;;;;;24.50;12.68;;;;;;;16.51;100.00;92525.44;4926245;29;20031;-92
2023/06/05 11:20:21;;;;;;;26.52;15.02;;;;;;;16.75;100.00;92555.72;4929116;29;20039;-91
2023/06/05 11:22:53;;;;;;;18.75;11.18;;;;;;;16.84;100.00;92554.59;4952898;29;20049;-92
2023/06/05 11:25:21;;;;;;;26.65;14.07;;;;;;;16.80;100.00;92558.97;4931941;29;20043;-92
2023/06/05 11:28:07;;;;;;;25.30;14.63;;;;;;;16.77;100.00;92559.59;4951143;29;20126;-92
2023/06/05 11:30:43;;;;;;;24.08;13.70;;;;;;;16.61;100.00;92530.31;4959882;29;20039;-93
2023/06/05 11:33:17;;;;;;;24.70;14.35;;;;;;;16.72;100.00;92522.78;4934004;29;20051;-93
2023/06/05 11:35:48;;;;;;;29.73;14.45;;;;;;;16.80;100.00;92543.13;4932375;28;20039;-92